createdAt,value
2023-02-11T00:01:11.568Z,102682.78
2023-02-11T00:03:38.920Z,102678.50
2023-02-11T00:06:09.480Z,102676.47
2023-02-11T00:08:36.609Z,102678.31
2023-02-11T00:11:04.133Z,102668.69
2023-02-11T00:13:31.026Z,102666.12
2023-02-11T00:15:57.905Z,102677.63
2023-02-11T00:18:24.937Z,102671.44
2023-02-11T00:20:51.859Z,102660.47
2023-02-11T00:23:18.611Z,102670.25
2023-02-11T00:25:45.744Z,102663.97
2023-02-11T00:28:13.199Z,102684.53
2023-02-11T00:30:40.916Z,102676.91
2023-02-11T00:33:07.933Z,102688.16
2023-02-11T00:35:38.524Z,102681.41
2023-02-11T00:38:05.551Z,102680.47
2023-02-11T00:40:32.404Z,102682.06
2023-02-11T00:42:59.368Z,102668.19
2023-02-11T00:45:26.258Z,102672.41
2023-02-11T00:47:53.183Z,102669.50
2023-02-11T00:50:20.009Z,102668.84
2023-02-11T00:52:46.856Z,102652.41
2023-02-11T00:55:13.735Z,102652.91
2023-02-11T00:57:40.541Z,102653.69
2023-02-11T01:00:08.500Z,102639.84
2023-02-11T01:02:35.967Z,102653.59
2023-02-11T01:05:03.377Z,102652.97
2023-02-11T01:07:30.297Z,102632.81
2023-02-11T01:09:57.740Z,102642.56
2023-02-11T01:12:24.727Z,102626.87
2023-02-11T01:14:51.558Z,102626.09
2023-02-11T01:17:18.467Z,102622.56
2023-02-11T01:19:45.546Z,102620.69
2023-02-11T01:22:12.412Z,102623.81
2023-02-11T01:24:39.248Z,102606.28
2023-02-11T01:27:06.153Z,102616.84
2023-02-11T01:29:33.091Z,102625.25
2023-02-11T01:32:01.044Z,102620.06
2023-02-11T01:34:28.327Z,102610.25
2023-02-11T01:36:59.383Z,102611.12
2023-02-11T01:39:27.323Z,102617.13
2023-02-11T01:41:55.087Z,102619.72
2023-02-11T01:44:31.846Z,102615.34
2023-02-11T01:46:59.472Z,102611.12
2023-02-11T01:49:33.160Z,102598.81
2023-02-11T01:52:20.042Z,102606.75
2023-02-11T01:55:09.320Z,102599.28
2023-02-11T01:57:38.945Z,102594.81
2023-02-11T02:00:16.289Z,102597.50
2023-02-11T02:02:44.664Z,102602.00
2023-02-11T02:05:30.204Z,102602.94
2023-02-11T02:08:09.207Z,102601.19
2023-02-11T02:10:38.124Z,102595.03
2023-02-11T02:13:05.050Z,102587.53
2023-02-11T02:15:36.879Z,102588.44
2023-02-11T02:18:25.460Z,102583.81
2023-02-11T02:21:24.458Z,102593.50
2023-02-11T02:24:09.251Z,102597.81
2023-02-11T02:27:00.775Z,102596.09
2023-02-11T02:29:58.728Z,102590.00
2023-02-11T02:32:54.885Z,102593.38
2023-02-11T02:35:27.882Z,102596.66
2023-02-11T02:38:20.762Z,102587.03
2023-02-11T02:40:55.151Z,102596.53
2023-02-11T02:43:23.026Z,102587.81
2023-02-11T02:45:50.288Z,102592.06
2023-02-11T02:48:29.764Z,102582.47
2023-02-11T02:51:18.190Z,102582.34
2023-02-11T02:54:20.343Z,102588.12
2023-02-11T02:57:02.355Z,102584.31
2023-02-11T02:59:37.558Z,102585.41
2023-02-11T03:02:29.850Z,102569.37
2023-02-11T03:05:04.674Z,102574.88
2023-02-11T03:07:41.973Z,102569.72
2023-02-11T03:10:38.073Z,102561.56
2023-02-11T03:13:06.080Z,102565.84
2023-02-11T03:15:35.153Z,102559.84
2023-02-11T03:18:03.392Z,102550.25
2023-02-11T03:20:33.207Z,102534.81
2023-02-11T03:23:11.901Z,102550.59
2023-02-11T03:25:44.560Z,102548.63
2023-02-11T03:28:18.378Z,102546.97
2023-02-11T03:30:59.761Z,102547.50
2023-02-11T03:33:36.182Z,102536.22
2023-02-11T03:36:07.450Z,102537.06
2023-02-11T03:38:38.620Z,102534.09
2023-02-11T03:41:07.181Z,102532.25
2023-02-11T03:43:37.295Z,102521.06
2023-02-11T03:46:04.960Z,102521.25
2023-02-11T03:48:34.707Z,102522.03
2023-02-11T03:51:03.400Z,102509.94
2023-02-11T03:53:30.262Z,102515.41
2023-02-11T03:56:00.339Z,102513.78
2023-02-11T03:58:27.397Z,102503.34
2023-02-11T04:00:54.366Z,102498.25
2023-02-11T04:03:21.455Z,102500.03
2023-02-11T04:05:48.950Z,102491.56
2023-02-11T04:08:16.127Z,102489.41
2023-02-11T04:10:43.039Z,102494.87
2023-02-11T04:13:10.013Z,102485.41
2023-02-11T04:15:37.012Z,102488.56
2023-02-11T04:18:04.257Z,102495.28
2023-02-11T04:20:31.250Z,102485.81
2023-02-11T04:22:58.078Z,102489.38
2023-02-11T04:25:26.272Z,102484.37
2023-02-11T04:27:53.575Z,102488.56
2023-02-11T04:30:20.652Z,102491.50
2023-02-11T04:32:47.445Z,102499.41
2023-02-11T04:35:14.354Z,102493.97
2023-02-11T04:37:41.235Z,102490.59
2023-02-11T04:40:08.628Z,102492.97
2023-02-11T04:42:35.465Z,102480.13
2023-02-11T04:45:02.347Z,102486.91
2023-02-11T04:47:29.896Z,102489.81
2023-02-11T04:49:56.817Z,102477.75
2023-02-11T04:52:23.591Z,102471.63
2023-02-11T04:54:50.469Z,102413.97
2023-02-11T04:57:17.330Z,102471.69
2023-02-11T04:59:44.315Z,102469.06
2023-02-11T05:02:11.139Z,102470.56
2023-02-11T05:04:38.092Z,102476.84
2023-02-11T05:07:05.037Z,102467.19
2023-02-11T05:09:31.980Z,102464.50
2023-02-11T05:11:58.791Z,102461.78
2023-02-11T05:14:25.726Z,102466.63
2023-02-11T05:16:52.565Z,102471.19
2023-02-11T05:19:19.575Z,102475.72
2023-02-11T05:22:01.327Z,102470.25
2023-02-11T05:24:29.217Z,102469.56
2023-02-11T05:26:56.090Z,102471.28
2023-02-11T05:29:23.124Z,102482.62
2023-02-11T05:31:50.016Z,102468.81
2023-02-11T05:34:16.793Z,102482.81
2023-02-11T05:36:43.783Z,102471.19
2023-02-11T05:39:10.658Z,102471.25
2023-02-11T05:41:38.318Z,102460.87
2023-02-11T05:44:05.210Z,102467.03
2023-02-11T05:46:32.170Z,102469.44
2023-02-11T05:48:59.229Z,102466.69
2023-02-11T05:51:26.069Z,102469.41
2023-02-11T05:53:53.342Z,102470.13
2023-02-11T05:56:20.160Z,102459.53
2023-02-11T05:58:47.011Z,102472.91
2023-02-11T06:01:13.941Z,102461.59
2023-02-11T06:03:40.872Z,102462.31
2023-02-11T06:06:13.936Z,102455.41
2023-02-11T06:08:43.068Z,102447.69
2023-02-11T06:11:10.098Z,102443.09
2023-02-11T06:13:37.138Z,102437.38
2023-02-11T06:16:05.006Z,102426.91
2023-02-11T06:18:33.696Z,102440.53
2023-02-11T06:21:01.603Z,102452.94
2023-02-11T06:23:30.429Z,102452.56
2023-02-11T06:26:02.506Z,102436.72
2023-02-11T06:28:32.275Z,102422.41
2023-02-11T06:31:24.683Z,102427.13
2023-02-11T06:33:59.182Z,102412.28
2023-02-11T06:36:26.523Z,102396.25
2023-02-11T06:38:53.349Z,102386.97
2023-02-11T06:41:20.371Z,102379.09
2023-02-11T06:43:47.307Z,102367.19
2023-02-11T06:46:14.784Z,102349.41
2023-02-11T06:48:44.681Z,102344.97
2023-02-11T06:51:13.607Z,102358.53
2023-02-11T06:53:44.024Z,102340.44
2023-02-11T06:56:13.202Z,102362.37
2023-02-11T07:01:15.159Z,102351.19
2023-02-11T07:03:44.764Z,102351.19
2023-02-11T07:06:14.711Z,102384.25
2023-02-11T07:08:43.034Z,102379.84
2023-02-11T07:11:19.021Z,102357.94
2023-02-11T07:13:47.277Z,102357.84
2023-02-11T07:16:16.430Z,102369.22
2023-02-11T07:18:44.971Z,102379.13
2023-02-11T07:21:13.619Z,102373.53
2023-02-11T07:23:41.326Z,102347.56
2023-02-11T07:26:13.225Z,102367.00
2023-02-11T07:28:41.207Z,102377.47
2023-02-11T07:31:09.219Z,102373.59
2023-02-11T07:33:37.002Z,102386.69
2023-02-11T07:36:05.896Z,102381.09
2023-02-11T07:38:33.743Z,102383.56
2023-02-11T07:41:05.309Z,102393.38
2023-02-11T07:43:32.614Z,102383.06
2023-02-11T07:45:59.535Z,102388.28
2023-02-11T07:48:26.408Z,102386.56
2023-02-11T07:51:05.765Z,102396.47
2023-02-11T07:53:32.716Z,102409.37
2023-02-11T07:55:59.594Z,102406.19
2023-02-11T07:58:26.554Z,102400.34
2023-02-11T08:00:53.753Z,102393.63
2023-02-11T08:03:20.781Z,102379.72
2023-02-11T08:05:47.679Z,102382.53
2023-02-11T08:08:14.919Z,102377.50
2023-02-11T08:10:41.880Z,102374.97
2023-02-11T08:13:08.840Z,102379.37
2023-02-11T08:15:35.849Z,102362.84
2023-02-11T08:18:02.783Z,102383.69
2023-02-11T08:20:29.781Z,102377.06
2023-02-11T08:22:56.705Z,102385.06
2023-02-11T08:25:23.493Z,102396.56
2023-02-11T08:27:50.524Z,102394.22
2023-02-11T08:30:17.460Z,102387.25
2023-02-11T08:32:44.348Z,102392.00
2023-02-11T08:35:12.512Z,102383.44
2023-02-11T08:37:39.406Z,102387.19
2023-02-11T08:40:06.801Z,102376.06
2023-02-11T08:42:33.879Z,102380.69
2023-02-11T08:45:00.922Z,102366.94
2023-02-11T08:47:27.914Z,102361.06
2023-02-11T08:49:54.841Z,102367.41
2023-02-11T08:52:21.720Z,102354.50
2023-02-11T08:54:48.563Z,102345.81
2023-02-11T08:57:15.515Z,102321.53
2023-02-11T08:59:42.498Z,102319.97
2023-02-11T09:02:14.275Z,102308.22
2023-02-11T09:04:42.826Z,102295.06
2023-02-11T09:07:09.903Z,102309.94
2023-02-11T09:09:37.097Z,102315.16
2023-02-11T09:12:04.679Z,102312.44
2023-02-11T09:14:31.584Z,102301.22
2023-02-11T09:16:58.620Z,102293.44
2023-02-11T09:19:25.723Z,102289.28
2023-02-11T09:21:52.726Z,102292.78
2023-02-11T09:24:19.774Z,102283.22
2023-02-11T09:26:46.849Z,102280.78
2023-02-11T09:29:13.900Z,102273.06
2023-02-11T09:31:41.098Z,102274.84
2023-02-11T09:34:08.413Z,102254.03
2023-02-11T09:36:39.000Z,102247.97
2023-02-11T09:39:09.270Z,102218.03
2023-02-11T09:41:42.948Z,102217.81
2023-02-11T09:44:22.007Z,102218.84
2023-02-11T09:47:03.096Z,102214.44
2023-02-11T09:49:40.493Z,102224.91
2023-02-11T09:52:31.082Z,102222.38
2023-02-11T09:55:00.829Z,102229.47
2023-02-11T09:57:33.769Z,102215.41
2023-02-11T10:00:02.261Z,102218.94
2023-02-11T10:02:57.239Z,102218.06
2023-02-11T10:05:44.688Z,102228.66
2023-02-11T10:08:27.603Z,102225.19
2023-02-11T10:11:09.251Z,102222.53
2023-02-11T10:14:00.648Z,102184.66
2023-02-11T10:16:56.730Z,102184.75
2023-02-11T10:19:42.374Z,102167.16
2023-02-11T10:22:21.564Z,102168.06
2023-02-11T10:24:55.298Z,102159.25
2023-02-11T10:27:28.631Z,102151.31
2023-02-11T10:30:02.780Z,102147.78
2023-02-11T10:32:52.619Z,102142.53
2023-02-11T10:35:22.568Z,102122.22
2023-02-11T10:37:50.265Z,102118.69
2023-02-11T10:40:19.912Z,102120.44
2023-02-11T10:42:50.320Z,102116.03
2023-02-11T10:45:33.698Z,102104.50
2023-02-11T10:48:02.020Z,102100.06
2023-02-11T10:50:33.511Z,102101.75
2023-02-11T10:53:22.343Z,102070.72
2023-02-11T10:55:51.730Z,102061.06
2023-02-11T10:58:28.265Z,102063.75
2023-02-11T11:00:57.046Z,102052.12
2023-02-11T11:03:25.552Z,102032.50
2023-02-11T11:05:58.724Z,102017.16
2023-02-11T11:08:47.068Z,101990.44
2023-02-11T11:11:18.671Z,101979.00
2023-02-11T11:13:54.410Z,101992.94
2023-02-11T11:16:24.507Z,101996.25
2023-02-11T11:19:13.712Z,101974.25
2023-02-11T11:21:52.219Z,101947.66
2023-02-11T11:24:26.866Z,101954.47
2023-02-11T11:27:01.085Z,101960.53
2023-02-11T11:29:30.871Z,101977.16
2023-02-11T11:32:05.161Z,101964.78
2023-02-11T11:34:38.389Z,101962.19
2023-02-11T11:37:33.557Z,101954.22
2023-02-11T11:40:02.902Z,101948.00
2023-02-11T11:42:29.880Z,101942.81
2023-02-11T11:45:02.046Z,101958.47
2023-02-11T11:47:41.078Z,101939.78
2023-02-11T11:50:21.200Z,101928.16
2023-02-11T11:52:58.806Z,101932.38
2023-02-11T11:55:47.566Z,101923.53
2023-02-11T11:58:18.285Z,101914.69
2023-02-11T12:00:54.136Z,101902.31
2023-02-11T12:03:32.821Z,101906.91
2023-02-11T12:06:31.848Z,101897.25
2023-02-11T12:09:24.344Z,101896.19
2023-02-11T12:12:24.294Z,101878.06
2023-02-11T12:15:11.366Z,101871.81
2023-02-11T12:18:13.150Z,101869.09
2023-02-11T12:20:55.030Z,101863.72
2023-02-11T12:23:39.349Z,101865.22
2023-02-11T12:26:19.822Z,101860.78
2023-02-11T12:29:22.270Z,101838.66
2023-02-11T12:32:22.519Z,101843.91
2023-02-11T12:34:55.594Z,101822.38
2023-02-11T12:37:26.775Z,101810.84
2023-02-11T12:40:19.022Z,101801.94
2023-02-11T12:43:17.899Z,101814.56
2023-02-11T12:45:53.936Z,101810.19
2023-02-11T12:48:25.421Z,101826.03
2023-02-11T12:50:52.942Z,101809.00
2023-02-11T12:53:41.578Z,101794.66
2023-02-11T12:56:21.719Z,101799.53
2023-02-11T12:58:50.777Z,101790.63
2023-02-11T13:01:27.520Z,101773.66
2023-02-11T13:04:13.250Z,101751.41
2023-02-11T13:06:49.448Z,101754.03
2023-02-11T13:09:22.707Z,101753.84
2023-02-11T13:11:52.162Z,101740.69
2023-02-11T13:14:19.379Z,101737.06
2023-02-11T13:16:47.910Z,101755.63
2023-02-11T13:19:21.809Z,101748.34
2023-02-11T13:22:15.070Z,101719.69
2023-02-11T13:24:49.431Z,101703.47
2023-02-11T13:27:33.207Z,101709.56
2023-02-11T13:30:34.586Z,101709.09
2023-02-11T13:33:01.596Z,101704.19
2023-02-11T13:35:46.736Z,101704.94
2023-02-11T13:38:16.407Z,101683.28
2023-02-11T13:40:44.245Z,101694.50
2023-02-11T13:43:31.129Z,101676.63
2023-02-11T13:46:03.907Z,101651.09
2023-02-11T13:48:32.012Z,101674.16
2023-02-11T13:51:08.728Z,101675.94
2023-02-11T13:53:49.084Z,101680.13
2023-02-11T13:56:35.453Z,101674.53
2023-02-11T13:59:05.527Z,101677.31
2023-02-11T14:02:10.464Z,101683.59
2023-02-11T14:05:19.997Z,101668.91
2023-02-11T14:08:30.498Z,101670.59
2023-02-11T14:11:08.614Z,101692.88
2023-02-11T14:13:47.850Z,101683.16
2023-02-11T14:16:36.399Z,101703.88
2023-02-11T14:19:06.224Z,101704.78
2023-02-11T14:21:40.354Z,101695.00
2023-02-11T14:24:10.908Z,101725.69
2023-02-11T14:26:55.306Z,101737.78
2023-02-11T14:29:40.168Z,101728.94
2023-02-11T14:32:55.827Z,101747.66
2023-02-11T14:35:47.321Z,101752.25
2023-02-11T14:38:39.160Z,101748.78
2023-02-11T14:41:07.647Z,101759.44
2023-02-11T14:43:58.634Z,101758.59
2023-02-11T14:46:27.815Z,101733.06
2023-02-11T14:48:58.448Z,101747.09
2023-02-11T14:51:29.504Z,101732.88
2023-02-11T14:54:00.676Z,101737.91
2023-02-11T14:56:31.108Z,101728.09
2023-02-11T14:58:58.749Z,101718.44
2023-02-11T15:01:38.395Z,101718.94
2023-02-11T15:04:07.016Z,101718.56
2023-02-11T15:06:40.196Z,101712.56
2023-02-11T15:09:19.349Z,101729.69
2023-02-11T15:11:48.031Z,101733.38
2023-02-11T15:14:32.566Z,101749.53
2023-02-11T15:17:05.158Z,101757.81
2023-02-11T15:19:35.967Z,101752.69
2023-02-11T15:22:22.257Z,101764.38
2023-02-11T15:25:14.982Z,101756.31
2023-02-11T15:27:53.327Z,101756.69
2023-02-11T15:30:24.913Z,101758.44
2023-02-11T15:32:59.953Z,101747.75
2023-02-11T15:35:36.739Z,101762.03
2023-02-11T15:38:05.557Z,101753.25
2023-02-11T15:40:36.200Z,101773.72
2023-02-11T15:43:08.735Z,101764.03
2023-02-11T15:45:38.848Z,101772.03
2023-02-11T15:48:11.691Z,101766.88
2023-02-11T15:50:40.896Z,101768.69
2023-02-11T15:53:27.145Z,101775.87
2023-02-11T15:56:16.321Z,101761.84
2023-02-11T15:58:45.599Z,101758.47
2023-02-11T16:01:14.138Z,101766.66
2023-02-11T16:03:42.794Z,101759.78
2023-02-11T16:06:25.240Z,101761.69
2023-02-11T16:09:06.282Z,101761.91
2023-02-11T16:11:36.152Z,101754.91
2023-02-11T16:14:21.558Z,101769.28
2023-02-11T16:16:51.580Z,101767.59
2023-02-11T16:19:20.843Z,101764.19
2023-02-11T16:21:49.382Z,101771.22
2023-02-11T16:24:28.013Z,101772.97
2023-02-11T16:26:57.826Z,101771.19
2023-02-11T16:29:27.401Z,101794.25
2023-02-11T16:32:07.332Z,101789.87
2023-02-11T16:34:36.111Z,101796.16
2023-02-11T16:37:05.090Z,101777.66
2023-02-11T16:39:32.436Z,101790.88
2023-02-11T16:42:00.411Z,101789.16
2023-02-11T16:44:28.080Z,101795.41
2023-02-11T16:46:56.123Z,101793.66
2023-02-11T16:49:26.757Z,101815.75
2023-02-11T16:51:57.067Z,101808.47
2023-02-11T16:54:24.362Z,101818.06
2023-02-11T16:56:51.504Z,101807.38
2023-02-11T16:59:18.738Z,101808.25
2023-02-11T17:01:46.598Z,101804.69
2023-02-11T17:04:28.702Z,101804.69
2023-02-11T17:06:58.220Z,101797.53
2023-02-11T17:09:30.315Z,101807.25
2023-02-11T17:11:58.079Z,101801.06
2023-02-11T17:14:25.414Z,101809.03
2023-02-11T17:16:52.672Z,101800.25
2023-02-11T17:19:21.436Z,101782.41
2023-02-11T17:21:51.449Z,101784.09
2023-02-11T17:24:20.316Z,101774.50
2023-02-11T17:26:48.280Z,101799.16
2023-02-11T17:29:19.284Z,101786.69
2023-02-11T17:31:46.725Z,101783.88
2023-02-11T17:34:15.104Z,101784.75
2023-02-11T17:36:42.234Z,101773.41
2023-02-11T17:39:10.533Z,101774.22
2023-02-11T17:41:38.911Z,101792.87
2023-02-11T17:44:07.564Z,101801.69
2023-02-11T17:46:35.158Z,101794.50
2023-02-11T17:49:02.882Z,101797.22
2023-02-11T17:51:33.044Z,101787.38
2023-02-11T17:54:02.914Z,101799.75
2023-02-11T17:56:32.077Z,101787.34
2023-02-11T17:58:59.687Z,101784.59
2023-02-11T18:01:30.435Z,101789.97
2023-02-11T18:03:59.674Z,101782.84
2023-02-11T18:06:29.127Z,101777.56
2023-02-11T18:08:59.618Z,101774.09
2023-02-11T18:11:27.837Z,101767.88
2023-02-11T18:13:55.136Z,101770.59
2023-02-11T18:16:24.214Z,101770.62
2023-02-11T18:18:51.354Z,101773.25
2023-02-11T18:21:20.563Z,101766.25
2023-02-11T18:23:48.482Z,101780.50
2023-02-11T18:26:17.038Z,101782.34
2023-02-11T18:28:46.009Z,101787.72
2023-02-11T18:31:14.918Z,101775.19
2023-02-11T18:33:42.507Z,101785.87
2023-02-11T18:36:11.598Z,101770.81
2023-02-11T18:38:39.670Z,101775.19
2023-02-11T18:41:10.300Z,101777.09
2023-02-11T18:43:37.557Z,101785.94
2023-02-11T18:46:11.581Z,101776.97
2023-02-11T18:48:39.739Z,101772.53
2023-02-11T18:51:11.481Z,101787.56
2023-02-11T18:53:38.700Z,101768.13
2023-02-11T18:56:14.734Z,101767.16
2023-02-11T18:58:41.865Z,101768.97
2023-02-11T19:01:20.922Z,101777.97
2023-02-11T19:03:48.845Z,101796.72
2023-02-11T19:06:17.822Z,101797.59
2023-02-11T19:08:45.974Z,101794.09
2023-02-11T19:11:16.089Z,101792.31
2023-02-11T19:13:43.477Z,101800.28
2023-02-11T19:16:11.660Z,101811.84
2023-02-11T19:18:38.891Z,101805.59
2023-02-11T19:21:10.830Z,101802.94
2023-02-11T19:23:38.516Z,101804.62
2023-02-11T19:26:06.555Z,101783.38
2023-02-11T19:28:35.352Z,101797.53
2023-02-11T19:31:09.567Z,101797.59
2023-02-11T19:33:37.082Z,101802.84
2023-02-11T19:36:06.009Z,101796.81
2023-02-11T19:38:33.604Z,101809.06
2023-02-11T19:41:00.636Z,101811.78
2023-02-11T19:43:28.211Z,101813.53
2023-02-11T19:45:56.361Z,101795.09
2023-02-11T19:48:25.009Z,101785.31
2023-02-11T19:50:54.602Z,101810.97
2023-02-11T19:53:21.822Z,101806.47
2023-02-11T19:55:49.901Z,101801.16
2023-02-11T19:58:17.573Z,101804.69
2023-02-11T20:00:44.780Z,101793.19
2023-02-11T20:03:12.179Z,101793.19
2023-02-11T20:05:40.312Z,101787.88
2023-02-11T20:08:07.937Z,101778.94
2023-02-11T20:10:35.087Z,101789.66
2023-02-11T20:13:03.930Z,101789.78
2023-02-11T20:15:31.851Z,101798.59
2023-02-11T20:17:59.177Z,101790.69
2023-02-11T20:20:26.217Z,101788.84
2023-02-11T20:22:53.165Z,101807.44
2023-02-11T20:25:20.257Z,101805.66
2023-02-11T20:27:47.579Z,101807.34
2023-02-11T20:30:16.287Z,101797.69
2023-02-11T20:32:43.322Z,101795.03
2023-02-11T20:35:10.472Z,101787.13
2023-02-11T20:37:38.791Z,101786.25
2023-02-11T20:40:07.059Z,101795.19
2023-02-11T20:42:34.226Z,101799.63
2023-02-11T20:45:01.268Z,101809.31
2023-02-11T20:47:28.532Z,101802.19
2023-02-11T20:49:55.934Z,101811.06
2023-02-11T20:52:22.976Z,101792.31
2023-02-11T20:54:50.045Z,101803.84
2023-02-11T20:57:17.605Z,101821.53
2023-02-11T20:59:44.630Z,101794.16
2023-02-11T21:02:13.255Z,101815.38
2023-02-11T21:04:40.579Z,101810.00
2023-02-11T21:07:07.684Z,101810.09
2023-02-11T21:09:35.935Z,101762.56
2023-02-11T21:12:03.379Z,101806.41
2023-02-11T21:14:30.504Z,101796.72
2023-02-11T21:16:57.728Z,101802.94
2023-02-11T21:19:24.970Z,101807.34
2023-02-11T21:21:52.075Z,101814.38
2023-02-11T21:24:19.435Z,101816.06
2023-02-11T21:26:46.662Z,101833.66
2023-02-11T21:29:13.606Z,101823.03
2023-02-11T21:31:40.626Z,101824.97
2023-02-11T21:34:08.146Z,101812.66
2023-02-11T21:36:35.454Z,101819.84
2023-02-11T21:39:03.937Z,101820.69
2023-02-11T21:41:31.438Z,101824.28
2023-02-11T21:43:58.598Z,101809.22
2023-02-11T21:46:26.380Z,101813.69
2023-02-11T21:48:53.551Z,101812.81
2023-02-11T21:51:23.336Z,101826.13
2023-02-11T21:53:57.616Z,101835.00
2023-02-11T21:56:27.994Z,101821.78
2023-02-11T21:58:57.620Z,101820.97
2023-02-11T22:01:30.241Z,101817.50
2023-02-11T22:03:57.611Z,101824.62
2023-02-11T22:06:32.956Z,101824.56
2023-02-11T22:09:04.749Z,101827.28
2023-02-11T22:11:31.942Z,101837.94
2023-02-11T22:13:59.243Z,101841.66
2023-02-11T22:16:27.181Z,101854.78
2023-02-11T22:18:56.024Z,101842.38
2023-02-11T22:21:23.399Z,101848.66
2023-02-11T22:23:51.124Z,101856.66
2023-02-11T22:26:21.134Z,101849.56
2023-02-11T22:28:49.268Z,101846.87
2023-02-11T22:31:21.429Z,101844.97
2023-02-11T22:33:48.835Z,101847.66
2023-02-11T22:36:24.032Z,101844.22
2023-02-11T22:38:51.108Z,101852.22
2023-02-11T22:41:19.014Z,101854.91
2023-02-11T22:43:46.039Z,101861.84
2023-02-11T22:46:15.793Z,101869.03
2023-02-11T22:48:43.130Z,101879.72
2023-02-11T22:51:16.102Z,101885.91
2023-02-11T22:53:45.852Z,101873.41
2023-02-11T22:56:15.541Z,101862.72
2023-02-11T22:58:43.113Z,101867.19
2023-02-11T23:01:10.305Z,101856.63
2023-02-11T23:03:37.367Z,101855.78
2023-02-11T23:06:04.598Z,101858.50
2023-02-11T23:08:32.618Z,101850.53
2023-02-11T23:11:08.664Z,101867.28
2023-02-11T23:13:37.607Z,101866.44
2023-02-11T23:16:06.129Z,101859.22
2023-02-11T23:18:34.254Z,101846.06
2023-02-11T23:21:13.618Z,101858.41
2023-02-11T23:23:40.484Z,101866.50
2023-02-11T23:26:18.116Z,101855.94
2023-02-11T23:28:46.125Z,101853.34
2023-02-11T23:31:26.568Z,101855.06
2023-02-11T23:33:54.105Z,101859.56
2023-02-11T23:36:21.564Z,101846.44
2023-02-11T23:38:48.985Z,101807.81
2023-02-11T23:41:16.368Z,101834.06
2023-02-11T23:43:43.512Z,101824.31
2023-02-11T23:46:11.968Z,101819.97
2023-02-11T23:48:40.491Z,101822.63
2023-02-11T23:51:09.619Z,101822.53
2023-02-11T23:53:39.774Z,101820.72
2023-02-11T23:56:12.693Z,101829.56
2023-02-11T23:58:39.525Z,101821.56
